createdAt,value
2022-08-20T00:00:07.761Z,952.26
2022-08-20T00:01:07.755Z,952.23
2022-08-20T00:02:07.789Z,952.27
2022-08-20T00:03:07.741Z,952.28
2022-08-20T00:04:07.736Z,952.27
2022-08-20T00:05:07.731Z,952.24
2022-08-20T00:06:07.756Z,952.27
2022-08-20T00:07:07.718Z,952.31
2022-08-20T00:08:07.714Z,952.33
2022-08-20T00:09:07.710Z,952.27
2022-08-20T00:10:07.703Z,952.25
2022-08-20T00:11:07.693Z,952.29
2022-08-20T00:12:07.689Z,952.26
2022-08-20T00:13:07.685Z,952.25
2022-08-20T00:14:07.677Z,952.29
2022-08-20T00:15:07.669Z,952.26
2022-08-20T00:16:07.665Z,952.28
2022-08-20T00:17:07.660Z,952.29
2022-08-20T00:18:07.651Z,952.28
2022-08-20T00:19:07.646Z,952.3
2022-08-20T00:20:07.646Z,952.3
2022-08-20T00:21:07.634Z,952.31
2022-08-20T00:22:07.627Z,952.31
2022-08-20T00:23:10.427Z,952.3
2022-08-20T00:24:07.615Z,952.33
2022-08-20T00:25:07.612Z,952.29
2022-08-20T00:26:07.601Z,952.28
2022-08-20T00:27:07.607Z,952.27
2022-08-20T00:28:07.590Z,952.29
2022-08-20T00:29:07.584Z,952.28
2022-08-20T00:30:07.577Z,952.29
2022-08-20T00:31:07.575Z,952.28
2022-08-20T00:32:07.566Z,952.29
2022-08-20T00:33:07.560Z,952.3
2022-08-20T00:34:07.553Z,952.28
2022-08-20T00:35:07.548Z,952.24
2022-08-20T00:36:07.540Z,952.29
2022-08-20T00:37:07.535Z,952.3
2022-08-20T00:38:07.528Z,952.3
2022-08-20T00:39:07.524Z,952.29
2022-08-20T00:40:07.594Z,952.26
2022-08-20T00:41:07.511Z,952.27
2022-08-20T00:42:07.505Z,952.32
2022-08-20T00:43:07.501Z,952.34
2022-08-20T00:44:07.492Z,952.32
2022-08-20T00:45:07.486Z,952.31
2022-08-20T00:46:07.478Z,952.33
2022-08-20T00:47:07.481Z,952.32
2022-08-20T00:48:07.469Z,952.31
2022-08-20T00:49:07.460Z,952.27
2022-08-20T00:50:07.454Z,952.33
2022-08-20T00:51:07.455Z,952.3
2022-08-20T00:52:07.441Z,952.36
2022-08-20T00:53:07.437Z,952.39
2022-08-20T00:54:07.431Z,952.4
2022-08-20T00:55:07.424Z,952.37
2022-08-20T00:56:07.418Z,952.39
2022-08-20T00:57:07.413Z,952.39
2022-08-20T00:58:07.675Z,952.42
2022-08-20T00:59:07.400Z,952.45
2022-08-20T01:00:07.397Z,952.43
2022-08-20T01:01:07.390Z,952.45
2022-08-20T01:02:07.408Z,952.44
2022-08-20T01:03:07.378Z,952.45
2022-08-20T01:04:07.368Z,952.47
2022-08-20T01:05:07.364Z,952.42
2022-08-20T01:06:07.356Z,952.44
2022-08-20T01:07:07.355Z,952.42
2022-08-20T01:08:07.344Z,952.47
2022-08-20T01:09:07.340Z,952.45
2022-08-20T01:10:07.343Z,952.39
2022-08-20T01:11:07.330Z,952.41
2022-08-20T01:12:07.321Z,952.42
2022-08-20T01:13:07.314Z,952.43
2022-08-20T01:14:07.310Z,952.4
2022-08-20T01:15:07.300Z,952.37
2022-08-20T01:16:07.296Z,952.43
2022-08-20T01:17:07.289Z,952.4
2022-08-20T01:18:07.283Z,952.44
2022-08-20T01:19:07.276Z,952.46
2022-08-20T01:20:07.272Z,952.5
2022-08-20T01:21:07.264Z,952.47
2022-08-20T01:22:07.259Z,952.45
2022-08-20T01:23:07.252Z,952.45
2022-08-20T01:24:07.246Z,952.41
2022-08-20T01:25:07.241Z,952.44
2022-08-20T01:26:07.234Z,952.45
2022-08-20T01:27:07.226Z,952.41
2022-08-20T01:28:07.221Z,952.42
2022-08-20T01:29:07.216Z,952.4
2022-08-20T01:30:07.210Z,952.38
2022-08-20T01:31:07.200Z,952.42
2022-08-20T01:32:07.198Z,952.41
2022-08-20T01:33:07.188Z,952.41
2022-08-20T01:34:07.184Z,952.43
2022-08-20T01:35:07.176Z,952.47
2022-08-20T01:36:07.170Z,952.48
2022-08-20T01:37:07.163Z,952.49
2022-08-20T01:38:07.161Z,952.51
2022-08-20T01:39:07.149Z,952.48
2022-08-20T01:40:09.169Z,952.51
2022-08-20T01:41:07.138Z,952.49
2022-08-20T01:42:07.132Z,952.52
2022-08-20T01:43:07.126Z,952.51
2022-08-20T01:44:08.646Z,952.54
2022-08-20T01:45:07.114Z,952.56
2022-08-20T01:46:07.107Z,952.57
2022-08-20T01:47:07.101Z,952.57
2022-08-20T01:48:07.097Z,952.55
2022-08-20T01:49:07.090Z,952.53
2022-08-20T01:50:07.081Z,952.51
2022-08-20T01:51:07.074Z,952.53
2022-08-20T01:52:07.070Z,952.53
2022-08-20T01:53:07.062Z,952.54
2022-08-20T01:54:07.056Z,952.57
2022-08-20T01:55:07.050Z,952.56
2022-08-20T01:56:07.052Z,952.56
2022-08-20T01:57:07.037Z,952.56
2022-08-20T01:58:07.034Z,952.54
2022-08-20T01:59:07.024Z,952.6
2022-08-20T02:00:07.020Z,952.57
2022-08-20T02:01:07.099Z,952.53
2022-08-20T02:02:07.005Z,952.56
2022-08-20T02:03:07.000Z,952.56
2022-08-20T02:04:06.994Z,952.58
2022-08-20T02:05:06.988Z,952.58
2022-08-20T02:06:06.983Z,952.59
2022-08-20T02:07:06.977Z,952.55
2022-08-20T02:08:06.969Z,952.58
2022-08-20T02:09:06.965Z,952.57
2022-08-20T02:10:06.955Z,952.57
2022-08-20T02:11:07.100Z,952.56
2022-08-20T02:12:06.942Z,952.57
2022-08-20T02:13:06.938Z,952.57
2022-08-20T02:14:06.933Z,952.62
2022-08-20T02:15:06.930Z,952.58
2022-08-20T02:16:06.917Z,952.55
2022-08-20T02:17:06.915Z,952.56
2022-08-20T02:18:07.099Z,952.51
2022-08-20T02:19:06.903Z,952.5
2022-08-20T02:20:06.896Z,952.5
2022-08-20T02:21:06.890Z,952.52
2022-08-20T02:22:06.881Z,952.52
2022-08-20T02:23:06.875Z,952.53
2022-08-20T02:24:06.869Z,952.57
2022-08-20T02:25:06.865Z,952.58
2022-08-20T02:26:06.856Z,952.58
2022-08-20T02:27:06.850Z,952.55
2022-08-20T02:28:06.850Z,952.55
2022-08-20T02:29:06.839Z,952.52
2022-08-20T02:30:06.832Z,952.51
2022-08-20T02:31:06.828Z,952.51
2022-08-20T02:32:23.993Z,952.51
2022-08-20T02:33:06.816Z,952.52
2022-08-20T02:34:14.962Z,952.54
2022-08-20T02:35:06.801Z,952.54
2022-08-20T02:36:06.793Z,952.52
2022-08-20T02:37:06.790Z,952.53
2022-08-20T02:38:06.781Z,952.49
2022-08-20T02:39:06.776Z,952.5
2022-08-20T02:40:06.806Z,952.49
2022-08-20T02:41:06.763Z,952.49
2022-08-20T02:42:06.757Z,952.51
2022-08-20T02:43:06.751Z,952.53
2022-08-20T02:44:06.743Z,952.54
2022-08-20T02:45:06.739Z,952.53
2022-08-20T02:46:06.731Z,952.58
2022-08-20T02:47:06.726Z,952.55
2022-08-20T02:48:06.720Z,952.57
2022-08-20T02:49:06.713Z,952.59
2022-08-20T02:50:06.933Z,952.61
2022-08-20T02:51:06.707Z,952.61
2022-08-20T02:52:06.699Z,952.58
2022-08-20T02:53:06.693Z,952.55
2022-08-20T02:54:06.688Z,952.54
2022-08-20T02:55:06.679Z,952.55
2022-08-20T02:56:06.675Z,952.51
2022-08-20T02:57:06.665Z,952.49
2022-08-20T02:58:06.662Z,952.49
2022-08-20T02:59:06.654Z,952.5
2022-08-20T03:00:06.648Z,952.49
2022-08-20T03:01:06.683Z,952.48
2022-08-20T03:02:06.637Z,952.49
2022-08-20T03:03:06.630Z,952.51
2022-08-20T03:04:06.624Z,952.51
2022-08-20T03:05:06.618Z,952.52
2022-08-20T03:06:06.612Z,952.56
2022-08-20T03:07:06.608Z,952.52
2022-08-20T03:08:06.602Z,952.5
2022-08-20T03:09:06.592Z,952.47
2022-08-20T03:10:06.587Z,952.47
2022-08-20T03:11:06.577Z,952.47
2022-08-20T03:12:06.575Z,952.52
2022-08-20T03:13:06.564Z,952.49
2022-08-20T03:14:06.564Z,952.5
2022-08-20T03:15:06.552Z,952.53
2022-08-20T03:16:06.549Z,952.49
2022-08-20T03:17:06.540Z,952.53
2022-08-20T03:18:06.536Z,952.54
2022-08-20T03:19:06.528Z,952.53
2022-08-20T03:20:06.527Z,952.49
2022-08-20T03:21:06.515Z,952.5
2022-08-20T03:22:06.512Z,952.49
2022-08-20T03:23:06.506Z,952.51
2022-08-20T03:24:06.500Z,952.57
2022-08-20T03:25:06.493Z,952.52
2022-08-20T03:26:06.486Z,952.54
2022-08-20T03:27:06.490Z,952.53
2022-08-20T03:28:06.472Z,952.5
2022-08-20T03:29:06.465Z,952.49
2022-08-20T03:30:06.462Z,952.5
2022-08-20T03:31:06.452Z,952.56
2022-08-20T03:32:07.845Z,952.53
2022-08-20T03:33:06.439Z,952.61
2022-08-20T03:49:50.522Z,952.98
2022-08-20T03:50:50.263Z,952.97
2022-08-20T03:51:57.195Z,952.93
2022-08-20T03:52:50.242Z,952.95
2022-08-20T03:53:50.230Z,952.95
2022-08-20T03:54:50.223Z,952.94
2022-08-20T03:55:53.702Z,952.94
2022-08-20T03:56:50.204Z,952.94
2022-08-20T03:57:50.271Z,952.95
2022-08-20T03:58:50.196Z,952.95
2022-08-20T03:59:54.753Z,952.98
2022-08-20T04:00:50.171Z,952.94
2022-08-20T04:01:50.207Z,952.97
2022-08-20T04:02:50.154Z,952.96
2022-08-20T04:03:54.680Z,952.97
2022-08-20T04:04:50.137Z,952.92
2022-08-20T04:05:50.128Z,952.93
2022-08-20T04:06:50.122Z,952.95
2022-08-20T04:07:50.135Z,952.94
2022-08-20T04:08:50.105Z,952.94
2022-08-20T04:09:50.098Z,952.95
2022-08-20T04:10:50.089Z,952.9
2022-08-20T04:11:50.078Z,952.93
2022-08-20T04:12:52.700Z,952.89
2022-08-20T04:13:50.065Z,952.89
2022-08-20T04:14:50.057Z,952.92
2022-08-20T04:15:50.054Z,952.92
2022-08-20T04:16:50.042Z,952.91
2022-08-20T04:17:50.106Z,952.95
2022-08-20T04:18:56.280Z,952.95
2022-08-20T04:19:50.017Z,952.97
2022-08-20T04:20:50.011Z,952.95
2022-08-20T04:21:50.004Z,952.92
2022-08-20T04:22:50.828Z,952.94
2022-08-20T04:23:49.986Z,952.96
2022-08-20T04:24:49.981Z,952.93
2022-08-20T04:25:49.974Z,953
2022-08-20T04:26:49.965Z,952.99
2022-08-20T04:27:50.016Z,953.02
2022-08-20T04:28:49.954Z,952.98
2022-08-20T04:29:49.941Z,952.99
2022-08-20T04:30:51.658Z,952.99
2022-08-20T04:31:49.927Z,952.97
2022-08-20T04:32:49.921Z,952.99
2022-08-20T04:33:49.912Z,952.98
2022-08-20T04:34:49.905Z,952.99
2022-08-20T04:35:49.902Z,952.98
2022-08-20T04:36:49.893Z,952.99
2022-08-20T04:37:49.908Z,953.02
2022-08-20T04:38:51.097Z,953.01
2022-08-20T04:39:49.888Z,953.03
2022-08-20T04:40:49.860Z,953.04
2022-08-20T04:41:49.855Z,953.01
2022-08-20T04:42:49.845Z,953.03
2022-08-20T04:43:49.840Z,953.03
2022-08-20T04:44:49.830Z,953.02
2022-08-20T04:45:49.825Z,953
2022-08-20T04:46:49.816Z,953.06
2022-08-20T04:47:49.826Z,953.03
2022-08-20T04:48:50.125Z,953.02
2022-08-20T04:49:49.795Z,953.05
2022-08-20T04:50:49.788Z,953.05
2022-08-20T04:51:49.781Z,953.08
2022-08-20T04:52:49.773Z,953.08
2022-08-20T04:53:51.898Z,953
2022-08-20T04:54:49.761Z,953.05
2022-08-20T04:55:49.753Z,953.04
2022-08-20T04:56:49.745Z,953.03
2022-08-20T04:57:49.790Z,953.04
2022-08-20T04:58:49.734Z,953.05
2022-08-20T04:59:49.726Z,953.07
2022-08-20T05:00:49.803Z,953.1
2022-08-20T05:01:49.711Z,953.1
2022-08-20T05:02:49.706Z,953.16
2022-08-20T05:03:49.700Z,953.11
2022-08-20T05:04:49.690Z,953.13
2022-08-20T05:05:49.686Z,953.14
2022-08-20T05:06:49.691Z,953.19
2022-08-20T05:07:49.745Z,953.19
2022-08-20T05:08:49.661Z,953.15
2022-08-20T05:09:49.655Z,953.19
2022-08-20T05:10:49.648Z,953.18
2022-08-20T05:11:49.641Z,953.18
2022-08-20T05:12:57.065Z,953.19
2022-08-20T05:13:49.629Z,953.18
2022-08-20T05:14:49.618Z,953.19
2022-08-20T05:15:49.618Z,953.19
2022-08-20T05:16:49.605Z,953.17
2022-08-20T05:17:49.641Z,953.2
2022-08-20T05:18:51.684Z,953.21
2022-08-20T05:19:49.587Z,953.24
2022-08-20T05:20:49.577Z,953.21
2022-08-20T05:21:49.575Z,953.26
2022-08-20T05:22:49.565Z,953.21
2022-08-20T05:23:49.690Z,953.24
2022-08-20T05:24:49.551Z,953.23
2022-08-20T05:25:49.549Z,953.24
2022-08-20T05:26:49.537Z,953.25
2022-08-20T05:27:49.561Z,953.23
2022-08-20T05:28:53.927Z,953.25
2022-08-20T05:29:49.520Z,953.25
2022-08-20T05:30:49.513Z,953.18
2022-08-20T05:31:49.508Z,953.25
2022-08-20T05:32:49.500Z,953.23
2022-08-20T05:33:49.494Z,953.26
2022-08-20T05:34:49.488Z,953.26
2022-08-20T05:35:49.479Z,953.25
2022-08-20T05:36:49.601Z,953.26
2022-08-20T05:37:49.464Z,953.27
2022-08-20T05:38:49.709Z,953.22
2022-08-20T05:39:49.519Z,953.22
2022-08-20T05:40:49.446Z,953.23
2022-08-20T05:41:49.438Z,953.21
2022-08-20T05:42:49.434Z,953.19
2022-08-20T05:43:49.426Z,953.21
2022-08-20T05:44:49.422Z,953.17
2022-08-20T05:45:51.508Z,953.16
2022-08-20T05:46:49.408Z,953.23
2022-08-20T05:47:53.385Z,953.21
2022-08-20T05:48:49.394Z,953.21
2022-08-20T05:49:49.385Z,953.26
2022-08-20T05:50:49.383Z,953.23
2022-08-20T05:51:49.375Z,953.24
2022-08-20T05:52:49.369Z,953.25
2022-08-20T05:53:49.359Z,953.24
2022-08-20T05:54:49.355Z,953.25
2022-08-20T05:55:49.349Z,953.22
2022-08-20T05:56:49.342Z,953.24
2022-08-20T05:57:49.405Z,953.24
2022-08-20T05:58:49.331Z,953.24
2022-08-20T05:59:49.321Z,953.24
2022-08-20T06:00:49.349Z,953.25
2022-08-20T06:01:49.308Z,953.29
2022-08-20T06:02:49.304Z,953.31
2022-08-20T06:03:49.297Z,953.32
2022-08-20T06:04:56.178Z,953.28
2022-08-20T06:05:49.286Z,953.33
2022-08-20T06:06:49.279Z,953.3
2022-08-20T06:07:49.292Z,953.34
2022-08-20T06:08:49.266Z,953.32
2022-08-20T06:09:49.258Z,953.35
2022-08-20T06:10:49.254Z,953.35
2022-08-20T06:11:49.246Z,953.33
2022-08-20T06:12:49.241Z,953.34
2022-08-20T06:13:49.234Z,953.32
2022-08-20T06:14:49.229Z,953.32
2022-08-20T06:15:49.221Z,953.32
2022-08-20T06:16:57.160Z,953.31
2022-08-20T06:17:51.212Z,953.33
2022-08-20T06:18:49.203Z,953.39
2022-08-20T06:19:49.202Z,953.37
2022-08-20T06:20:49.193Z,953.36
2022-08-20T06:21:49.185Z,953.35
2022-08-20T06:22:49.182Z,953.29
2022-08-20T06:23:56.391Z,953.32
2022-08-20T06:24:49.175Z,953.31
2022-08-20T06:25:49.162Z,953.3
2022-08-20T06:26:49.154Z,953.29
2022-08-20T06:27:49.273Z,953.26
2022-08-20T06:28:49.143Z,953.35
2022-08-20T06:29:49.140Z,953.33
2022-08-20T06:30:49.136Z,953.35
2022-08-20T06:31:49.127Z,953.4
2022-08-20T06:32:49.123Z,953.39
2022-08-20T06:33:49.117Z,953.38
2022-08-20T06:34:50.052Z,953.37
2022-08-20T06:35:49.108Z,953.36
2022-08-20T06:36:49.100Z,953.35
2022-08-20T06:37:49.167Z,953.38
2022-08-20T06:38:49.086Z,953.37
2022-08-20T06:39:49.118Z,953.36
2022-08-20T06:40:49.075Z,953.4
2022-08-20T06:41:49.071Z,953.41
2022-08-20T06:42:49.132Z,953.43
2022-08-20T06:43:49.061Z,953.43
2022-08-20T06:44:49.054Z,953.45
2022-08-20T06:45:49.054Z,953.45
2022-08-20T06:46:49.043Z,953.46
2022-08-20T06:47:49.041Z,953.42
2022-08-20T06:48:49.038Z,953.47
2022-08-20T06:49:49.030Z,953.41
2022-08-20T06:50:49.026Z,953.43
2022-08-20T06:51:50.036Z,953.46
2022-08-20T06:52:52.610Z,953.42
2022-08-20T06:53:49.012Z,953.43
2022-08-20T06:54:49.006Z,953.42
2022-08-20T06:55:49.003Z,953.43
2022-08-20T06:56:48.995Z,953.44
2022-08-20T06:57:49.007Z,953.42
2022-08-20T06:58:48.992Z,953.45
2022-08-20T06:59:52.392Z,953.43
2022-08-20T07:00:49.010Z,953.44
2022-08-20T07:01:48.978Z,953.43
2022-08-20T07:02:49.031Z,953.39
2022-08-20T07:03:54.317Z,953.43
2022-08-20T07:04:48.965Z,953.44
2022-08-20T07:05:48.962Z,953.46
2022-08-20T07:06:48.953Z,953.49
2022-08-20T07:07:48.951Z,953.48
2022-08-20T07:08:48.950Z,953.49
2022-08-20T07:09:48.945Z,953.48
2022-08-20T07:10:48.937Z,953.52
2022-08-20T07:11:48.934Z,953.5
2022-08-20T07:12:48.930Z,953.5
2022-08-20T07:13:48.928Z,953.49
2022-08-20T07:14:48.924Z,953.51
2022-08-20T07:15:48.918Z,953.54
2022-08-20T07:16:48.916Z,953.53
2022-08-20T07:17:48.920Z,953.55
2022-08-20T07:18:48.906Z,953.56
2022-08-20T07:19:48.900Z,953.51
2022-08-20T07:20:48.900Z,953.55
2022-08-20T07:21:48.895Z,953.55
2022-08-20T07:22:48.890Z,953.57
2022-08-20T07:23:48.948Z,953.57
2022-08-20T07:24:49.246Z,953.57
2022-08-20T07:25:48.877Z,953.58
2022-08-20T07:26:48.876Z,953.59
2022-08-20T07:27:48.870Z,953.59
2022-08-20T07:28:48.866Z,953.6
2022-08-20T07:29:48.862Z,953.6
2022-08-20T07:30:55.695Z,953.66
2022-08-20T07:31:48.853Z,953.6
2022-08-20T07:32:48.851Z,953.61
2022-08-20T07:33:49.368Z,953.61
2022-08-20T07:34:48.844Z,953.6
2022-08-20T07:35:48.848Z,953.62
2022-08-20T07:36:48.849Z,953.67
2022-08-20T07:37:48.836Z,953.65
2022-08-20T07:38:48.834Z,953.69
2022-08-20T07:39:48.862Z,953.71
2022-08-20T07:40:48.819Z,953.73
2022-08-20T07:41:53.476Z,953.76
2022-08-20T07:42:48.813Z,953.79
2022-08-20T07:43:48.807Z,953.79
2022-08-20T07:44:48.803Z,953.8
2022-08-20T07:45:49.783Z,953.82
2022-08-20T07:46:48.794Z,953.85
2022-08-20T07:47:48.790Z,953.77
2022-08-20T07:48:49.532Z,953.82
2022-08-20T07:49:49.523Z,953.82
2022-08-20T07:50:49.520Z,953.79
2022-08-20T07:51:49.517Z,953.78
2022-08-20T07:52:49.540Z,953.78
2022-08-20T07:53:49.507Z,953.8
2022-08-20T07:54:49.503Z,953.81
2022-08-20T07:55:51.140Z,953.82
2022-08-20T07:56:49.642Z,953.82
2022-08-20T07:57:49.493Z,953.85
2022-08-20T07:58:49.487Z,953.84
2022-08-20T07:59:49.483Z,953.83
2022-08-20T08:00:49.531Z,953.82
2022-08-20T08:01:49.471Z,953.81
2022-08-20T08:02:49.512Z,953.81
2022-08-20T08:03:50.687Z,953.79
2022-08-20T08:04:49.461Z,953.81
2022-08-20T08:05:49.457Z,953.79
2022-08-20T08:06:49.451Z,953.83
2022-08-20T08:07:49.451Z,953.8
2022-08-20T08:08:49.443Z,953.83
2022-08-20T08:09:49.442Z,953.77
2022-08-20T08:10:49.435Z,953.78
2022-08-20T08:11:49.512Z,953.78
2022-08-20T08:12:49.498Z,953.79
2022-08-20T08:13:49.428Z,953.8
2022-08-20T08:14:49.422Z,953.76
2022-08-20T08:15:49.417Z,953.78
2022-08-20T08:16:49.413Z,953.79
2022-08-20T08:17:49.409Z,953.8
2022-08-20T08:18:49.403Z,953.81
2022-08-20T08:19:49.404Z,953.81
2022-08-20T08:20:49.395Z,953.78
2022-08-20T08:21:49.398Z,953.82
2022-08-20T08:22:49.390Z,953.83
2022-08-20T08:23:49.386Z,953.8
2022-08-20T08:24:56.951Z,953.82
2022-08-20T08:25:49.380Z,953.81
2022-08-20T08:26:49.372Z,953.82
2022-08-20T08:27:49.370Z,953.83
2022-08-20T08:28:49.365Z,953.8
2022-08-20T08:29:49.366Z,953.81
2022-08-20T08:30:49.357Z,953.81
2022-08-20T08:31:49.360Z,953.86
2022-08-20T08:32:49.393Z,953.8
2022-08-20T08:33:49.346Z,953.8
2022-08-20T08:34:49.341Z,953.82
2022-08-20T08:35:49.342Z,953.85
2022-08-20T08:36:49.333Z,953.82
2022-08-20T08:37:49.333Z,953.91
2022-08-20T08:38:49.325Z,953.87
2022-08-20T08:39:49.368Z,953.93
2022-08-20T08:40:49.713Z,953.95
2022-08-20T08:41:49.320Z,953.91
2022-08-20T08:42:49.307Z,953.94
2022-08-20T08:43:49.303Z,953.96
2022-08-20T08:44:49.298Z,953.96
2022-08-20T08:45:49.296Z,953.96
2022-08-20T08:46:49.289Z,953.94
2022-08-20T08:47:49.287Z,953.92
2022-08-20T08:48:49.282Z,953.94
2022-08-20T08:49:49.280Z,953.97
2022-08-20T08:50:53.683Z,953.94
2022-08-20T08:51:49.278Z,953.94
2022-08-20T08:52:49.299Z,953.98
2022-08-20T08:53:49.261Z,953.95
2022-08-20T08:54:49.256Z,953.97
2022-08-20T08:55:49.253Z,953.98
2022-08-20T08:56:50.080Z,953.99
2022-08-20T08:57:49.244Z,953.97
2022-08-20T08:58:49.240Z,953.98
2022-08-20T08:59:58.369Z,953.99
2022-08-20T09:00:56.185Z,954.02
2022-08-20T09:01:58.179Z,954.02
2022-08-20T09:02:58.094Z,954.01
2022-08-20T09:03:57.962Z,953.98
2022-08-20T09:04:57.960Z,953.99
2022-08-20T09:05:57.953Z,953.98
2022-08-20T09:06:57.953Z,954
2022-08-20T09:07:57.945Z,953.96
2022-08-20T09:08:57.944Z,953.96
2022-08-20T09:09:57.936Z,953.98
2022-08-20T09:10:57.934Z,953.98
2022-08-20T09:11:57.932Z,953.99
2022-08-20T09:12:58.298Z,953.98
2022-08-20T09:13:58.208Z,954
2022-08-20T09:14:58.198Z,953.97
2022-08-20T09:15:58.195Z,953.95
2022-08-20T09:16:58.190Z,954
2022-08-20T09:17:58.370Z,953.98
2022-08-20T09:18:58.185Z,953.94
2022-08-20T09:19:58.175Z,953.93
2022-08-20T09:20:58.173Z,953.92
2022-08-20T09:21:58.167Z,953.93
2022-08-20T09:22:58.293Z,953.9
2022-08-20T09:23:58.162Z,953.9
2022-08-20T09:24:58.158Z,953.92
2022-08-20T09:25:58.148Z,953.94
2022-08-20T09:26:58.146Z,953.94
2022-08-20T09:27:58.142Z,953.92
2022-08-20T09:28:58.159Z,953.94
2022-08-20T09:29:58.132Z,953.97
2022-08-20T09:30:58.144Z,953.97
2022-08-20T09:31:58.124Z,953.98
2022-08-20T09:32:58.259Z,953.97
2022-08-20T09:33:58.119Z,953.95
2022-08-20T09:34:58.112Z,953.99
2022-08-20T09:35:58.105Z,953.99
2022-08-20T09:36:58.103Z,954.01
2022-08-20T09:37:58.215Z,953.95
2022-08-20T09:38:58.093Z,954
2022-08-20T09:39:58.107Z,954.02
2022-08-20T09:40:58.097Z,953.99
2022-08-20T09:41:58.080Z,954
2022-08-20T09:42:58.289Z,954.04
2022-08-20T09:43:58.067Z,954
2022-08-20T09:44:58.067Z,954.04
2022-08-20T09:45:58.060Z,954.03
2022-08-20T09:46:58.057Z,954.02
2022-08-20T09:47:58.157Z,954.02
2022-08-20T09:48:58.046Z,954.02
2022-08-20T09:49:58.044Z,954.01
2022-08-20T09:50:58.041Z,954.06
2022-08-20T09:51:58.035Z,954.04
2022-08-20T09:52:58.029Z,954.06
2022-08-20T09:53:58.028Z,954.01
2022-08-20T09:54:58.019Z,954.01
2022-08-20T09:55:58.017Z,954.05
2022-08-20T09:56:58.013Z,954.02
2022-08-20T09:57:58.121Z,954.03
2022-08-20T09:59:01.037Z,954.05
2022-08-20T09:59:58.000Z,954.03
2022-08-20T10:00:57.992Z,954.01
2022-08-20T10:01:58.128Z,954.03
2022-08-20T10:02:57.985Z,954.02
2022-08-20T10:03:57.982Z,954.06
2022-08-20T10:04:57.978Z,954.07
2022-08-20T10:05:57.972Z,954.04
2022-08-20T10:06:57.965Z,954.08
2022-08-20T10:07:58.126Z,954.09
2022-08-20T10:08:57.957Z,954.09
2022-08-20T10:09:57.954Z,954.1
2022-08-20T10:10:57.949Z,954.1
2022-08-20T10:11:57.947Z,954.11
2022-08-20T10:12:57.938Z,954.08
2022-08-20T10:13:57.938Z,954.07
2022-08-20T10:14:57.930Z,954.03
2022-08-20T10:15:57.928Z,954.11
2022-08-20T10:16:59.283Z,954.13
2022-08-20T10:17:58.183Z,954.07
2022-08-20T10:18:57.913Z,954.1
2022-08-20T10:19:57.912Z,954.07
2022-08-20T10:20:57.906Z,954.12
2022-08-20T10:21:57.902Z,954.11
2022-08-20T10:22:57.897Z,954.09
2022-08-20T10:23:57.894Z,954.11
2022-08-20T10:24:57.888Z,954.1
2022-08-20T10:25:57.886Z,954.12
2022-08-20T10:26:57.881Z,954.15
2022-08-20T10:27:58.010Z,954.15
2022-08-20T10:28:57.872Z,954.16
2022-08-20T10:29:57.870Z,954.11
2022-08-20T10:30:57.863Z,954.14
2022-08-20T10:31:57.864Z,954.1
2022-08-20T10:32:57.855Z,954.11
2022-08-20T10:33:57.854Z,954.11
2022-08-20T10:34:57.849Z,954.14
2022-08-20T10:35:59.985Z,954.11
2022-08-20T10:36:57.841Z,954.1
2022-08-20T10:37:58.029Z,954.13
2022-08-20T10:38:57.830Z,954.16
2022-08-20T10:39:57.888Z,954.15
2022-08-20T10:40:57.824Z,954.17
2022-08-20T10:41:57.818Z,954.15
2022-08-20T10:42:57.818Z,954.14
2022-08-20T10:43:57.815Z,954.17
2022-08-20T10:44:57.808Z,954.11
2022-08-20T10:45:57.802Z,954.14
2022-08-20T10:46:57.804Z,954.16
2022-08-20T10:47:57.985Z,954.19
2022-08-20T10:48:57.794Z,954.16
2022-08-20T10:49:57.788Z,954.16
2022-08-20T10:50:57.787Z,954.17
2022-08-20T10:51:57.778Z,954.19
2022-08-20T10:52:57.776Z,954.16
2022-08-20T10:53:57.769Z,954.17
2022-08-20T10:54:57.769Z,954.23
2022-08-20T10:55:57.782Z,954.26
2022-08-20T10:56:57.762Z,954.28
2022-08-20T10:57:57.925Z,954.29
2022-08-20T10:58:57.753Z,954.33
2022-08-20T10:59:57.748Z,954.35
2022-08-20T11:00:57.744Z,954.36
2022-08-20T11:01:57.801Z,954.37
2022-08-20T11:02:57.735Z,954.35
2022-08-20T11:03:57.731Z,954.36
2022-08-20T11:04:57.728Z,954.38
2022-08-20T11:05:57.723Z,954.36
2022-08-20T11:06:57.721Z,954.31
2022-08-20T11:07:57.717Z,954.3
2022-08-20T11:08:57.711Z,954.3
2022-08-20T11:09:57.708Z,954.3
2022-08-20T11:10:57.703Z,954.29
2022-08-20T11:11:57.699Z,954.28
2022-08-20T11:12:57.701Z,954.28
2022-08-20T11:13:57.690Z,954.3
2022-08-20T11:14:57.686Z,954.31
2022-08-20T11:15:57.680Z,954.34
2022-08-20T11:16:57.680Z,954.32
2022-08-20T11:17:57.842Z,954.32
2022-08-20T11:18:57.673Z,954.34
2022-08-20T11:19:57.668Z,954.34
2022-08-20T11:20:57.665Z,954.32
2022-08-20T11:21:57.657Z,954.32
2022-08-20T11:22:57.654Z,954.33
2022-08-20T11:24:01.043Z,954.3
2022-08-20T11:24:57.646Z,954.3
2022-08-20T11:25:57.640Z,954.29
2022-08-20T11:26:57.684Z,954.27
2022-08-20T11:27:57.860Z,954.3
2022-08-20T11:28:57.629Z,954.29
2022-08-20T11:29:57.622Z,954.29
2022-08-20T11:30:58.039Z,954.33
2022-08-20T11:31:58.036Z,954.28
2022-08-20T11:32:58.032Z,954.32
2022-08-20T11:33:58.031Z,954.29
2022-08-20T11:34:58.024Z,954.33
2022-08-20T11:35:58.021Z,954.31
2022-08-20T11:36:58.024Z,954.31
2022-08-20T11:37:58.278Z,954.31
2022-08-20T11:38:58.007Z,954.31
2022-08-20T11:39:58.006Z,954.3
2022-08-20T11:40:58.000Z,954.32
2022-08-20T11:41:57.999Z,954.31
2022-08-20T11:43:14.019Z,954.29
2022-08-20T11:44:17.780Z,954.29
2022-08-20T11:44:57.984Z,954.31
2022-08-20T11:45:57.980Z,954.32
2022-08-20T11:46:57.976Z,954.31
2022-08-20T11:47:58.173Z,954.37
2022-08-20T11:48:57.969Z,954.34
2022-08-20T11:49:57.966Z,954.32
2022-08-20T11:50:57.961Z,954.33
2022-08-20T11:51:57.974Z,954.33
2022-08-20T11:52:57.955Z,954.29
2022-08-20T11:53:57.954Z,954.33
2022-08-20T11:54:57.951Z,954.33
2022-08-20T11:55:57.945Z,954.31
2022-08-20T11:56:57.949Z,954.27
2022-08-20T11:58:00.074Z,954.32
2022-08-20T11:58:57.937Z,954.28
2022-08-20T11:59:57.931Z,954.31
2022-08-20T12:00:57.936Z,954.33
2022-08-20T12:02:02.617Z,954.31
2022-08-20T12:02:58.134Z,954.35
2022-08-20T12:03:57.921Z,954.33
2022-08-20T12:04:57.916Z,954.35
2022-08-20T12:05:57.914Z,954.35
2022-08-20T12:06:57.907Z,954.34
2022-08-20T12:07:57.929Z,954.32
2022-08-20T12:08:57.900Z,954.29
2022-08-20T12:09:57.902Z,954.33
2022-08-20T12:10:57.896Z,954.32
2022-08-20T12:11:57.892Z,954.32
2022-08-20T12:12:58.055Z,954.31
2022-08-20T12:13:57.887Z,954.34
2022-08-20T12:14:57.882Z,954.33
2022-08-20T12:15:57.880Z,954.3
2022-08-20T12:16:57.877Z,954.32
2022-08-20T12:17:57.875Z,954.28
2022-08-20T12:18:57.870Z,954.29
2022-08-20T12:19:57.867Z,954.31
2022-08-20T12:20:57.865Z,954.3
2022-08-20T12:21:57.861Z,954.31
2022-08-20T12:22:58.208Z,954.36
2022-08-20T12:23:57.854Z,954.32
2022-08-20T12:24:57.856Z,954.34
2022-08-20T12:25:59.247Z,954.4
2022-08-20T12:26:57.846Z,954.36
2022-08-20T12:27:57.842Z,954.39
2022-08-20T12:28:57.841Z,954.35
2022-08-20T12:29:57.834Z,954.4
2022-08-20T12:30:57.833Z,954.34
2022-08-20T12:31:57.832Z,954.38
2022-08-20T12:32:58.071Z,954.39
2022-08-20T12:33:57.823Z,954.41
2022-08-20T12:34:57.823Z,954.43
2022-08-20T12:35:57.816Z,954.45
2022-08-20T12:36:57.818Z,954.45
2022-08-20T12:37:57.812Z,954.46
2022-08-20T12:38:57.810Z,954.47
2022-08-20T12:39:57.851Z,954.41
2022-08-20T12:40:57.805Z,954.41
2022-08-20T12:41:57.798Z,954.44
2022-08-20T12:42:57.905Z,954.43
2022-08-20T12:43:57.795Z,954.4
2022-08-20T12:44:57.791Z,954.42
2022-08-20T12:45:57.796Z,954.37
2022-08-20T12:46:57.786Z,954.39